createdAt,value
2019-01-17T00:00:58.752Z,-2.33
2019-01-17T00:03:44.641Z,-2.44
2019-01-17T00:06:32.143Z,-2.33
2019-01-17T00:09:37.341Z,-2.41
2019-01-17T00:12:24.493Z,-2.41
2019-01-17T00:15:14.357Z,-2.39
2019-01-17T00:17:56.067Z,-2.39
2019-01-17T00:21:01.122Z,-2.35
2019-01-17T00:23:47.400Z,-2.37
2019-01-17T00:26:41.360Z,-2.33
2019-01-17T00:29:31.520Z,-2.32
2019-01-17T00:32:27.702Z,-2.36
2019-01-17T00:35:05.836Z,-2.38
2019-01-17T00:37:52.391Z,-2.25
2019-01-17T00:40:45.661Z,-2.31
2019-01-17T00:43:41.638Z,-2.35
2019-01-17T00:46:28.988Z,-2.30
2019-01-17T00:49:14.856Z,-2.41
2019-01-17T00:52:10.887Z,-2.48
2019-01-17T00:54:57.969Z,-2.37
2019-01-17T00:57:47.900Z,-2.36
2019-01-17T01:00:25.906Z,-2.32
2019-01-17T01:03:19.523Z,-2.27
2019-01-17T01:06:24.606Z,-2.21
2019-01-17T01:09:11.809Z,-2.27
2019-01-17T01:11:57.182Z,-2.33
2019-01-17T01:14:44.293Z,-2.45
2019-01-17T01:17:40.465Z,-2.41
2019-01-17T01:20:29.520Z,-2.33
2019-01-17T01:23:16.819Z,-2.32
2019-01-17T01:26:21.992Z,-2.25
2019-01-17T01:29:21.245Z,-2.29
2019-01-17T01:32:04.209Z,-2.24
2019-01-17T01:35:03.287Z,-2.26
2019-01-17T01:37:53.038Z,-2.22
2019-01-17T01:40:40.084Z,-2.23
2019-01-17T01:43:28.711Z,-2.23
2019-01-17T01:46:24.810Z,-2.15
2019-01-17T01:49:14.582Z,-2.26
2019-01-17T01:52:02.039Z,-2.29
2019-01-17T01:54:29.612Z,-2.19
2019-01-17T01:56:57.369Z,-2.09
2019-01-17T01:59:25.924Z,-2.05
2019-01-17T02:01:53.585Z,-2.00
2019-01-17T02:04:21.204Z,-2.01
2019-01-17T02:06:49.056Z,-2.06
2019-01-17T02:09:16.599Z,-2.10
2019-01-17T02:11:44.244Z,-2.08
2019-01-17T02:14:11.891Z,-2.01
2019-01-17T02:16:39.534Z,-1.93
2019-01-17T02:19:07.213Z,-1.90
2019-01-17T02:21:34.900Z,-1.90
2019-01-17T02:24:02.469Z,-1.97
2019-01-17T02:26:31.117Z,-2.01
2019-01-17T02:28:58.656Z,-1.96
2019-01-17T02:31:26.301Z,-1.91
2019-01-17T02:33:53.830Z,-1.94
2019-01-17T02:36:21.462Z,-1.77
2019-01-17T02:38:49.013Z,-1.81
2019-01-17T02:41:16.722Z,-1.76
2019-01-17T02:43:44.381Z,-1.76
2019-01-17T02:46:11.966Z,-1.75
2019-01-17T02:48:39.489Z,-1.78
2019-01-17T02:51:07.186Z,-1.77
2019-01-17T02:53:34.757Z,-1.81
2019-01-17T02:56:02.388Z,-1.74
2019-01-17T02:58:30.036Z,-1.65
2019-01-17T03:00:57.631Z,-1.67
2019-01-17T03:03:25.187Z,-1.62
2019-01-17T03:05:53.250Z,-1.60
2019-01-17T03:08:20.938Z,-1.64
2019-01-17T03:10:48.502Z,-1.56
2019-01-17T03:13:16.091Z,-1.49
2019-01-17T03:15:43.723Z,-1.53
2019-01-17T03:18:11.323Z,-1.52
2019-01-17T03:20:38.948Z,-1.45
2019-01-17T03:23:06.540Z,-1.41
2019-01-17T03:25:36.055Z,-1.46
2019-01-17T03:28:03.643Z,-1.43
2019-01-17T03:30:31.905Z,-1.46
2019-01-17T03:32:59.514Z,-1.43
2019-01-17T03:35:27.093Z,-1.33
2019-01-17T03:37:54.715Z,-1.41
2019-01-17T03:40:22.337Z,-1.39
2019-01-17T03:42:49.888Z,-1.48
2019-01-17T03:45:17.599Z,-1.49
2019-01-17T03:47:46.016Z,-1.41
2019-01-17T03:50:14.705Z,-1.45
2019-01-17T03:52:42.624Z,-1.44
2019-01-17T03:55:15.792Z,-1.55
2019-01-17T03:57:43.382Z,-1.51
2019-01-17T04:00:16.514Z,-1.48
2019-01-17T04:02:44.083Z,-1.54
2019-01-17T04:05:11.714Z,-1.55
2019-01-17T04:07:39.423Z,-1.61
2019-01-17T04:10:08.751Z,-1.56
2019-01-17T04:12:36.327Z,-1.58
2019-01-17T04:15:04.865Z,-1.54
2019-01-17T04:17:32.522Z,-1.65
2019-01-17T04:20:00.226Z,-1.60
2019-01-17T04:22:27.957Z,-1.64
2019-01-17T04:24:57.438Z,-1.63
2019-01-17T04:27:25.299Z,-1.59
2019-01-17T04:29:53.042Z,-1.54
2019-01-17T04:32:20.827Z,-1.71
2019-01-17T04:34:48.553Z,-1.68
2019-01-17T04:37:16.218Z,-1.76
2019-01-17T04:39:43.914Z,-1.80
2019-01-17T04:42:11.620Z,-1.73
2019-01-17T04:44:39.321Z,-1.67
2019-01-17T04:47:07.038Z,-1.71
2019-01-17T04:49:34.743Z,-1.74
2019-01-17T04:52:02.416Z,-1.73
2019-01-17T04:54:30.091Z,-1.76
2019-01-17T04:56:57.736Z,-1.71
2019-01-17T04:59:25.400Z,-1.75
2019-01-17T05:01:53.112Z,-1.78
2019-01-17T05:04:20.791Z,-1.70
2019-01-17T05:06:48.550Z,-1.72
2019-01-17T05:09:16.204Z,-1.70
2019-01-17T05:11:43.841Z,-1.63
2019-01-17T05:14:11.566Z,-1.60
2019-01-17T05:16:39.231Z,-1.58
2019-01-17T05:19:06.853Z,-1.61
2019-01-17T05:21:34.581Z,-1.50
2019-01-17T05:24:02.951Z,-1.53
2019-01-17T05:26:30.635Z,-1.51
2019-01-17T05:28:58.347Z,-1.60
2019-01-17T05:31:25.963Z,-1.60
2019-01-17T05:33:53.477Z,-1.52
2019-01-17T05:36:21.141Z,-1.55
2019-01-17T05:38:48.679Z,-1.50
2019-01-17T05:41:16.310Z,-1.50
2019-01-17T05:43:43.952Z,-1.43
2019-01-17T05:46:11.723Z,-1.40
2019-01-17T05:48:39.317Z,-1.34
2019-01-17T05:51:06.972Z,-1.37
2019-01-17T05:53:34.524Z,-1.41
2019-01-17T05:56:02.194Z,-1.49
2019-01-17T05:58:29.756Z,-1.51
2019-01-17T06:00:57.530Z,-1.57
2019-01-17T06:03:25.492Z,-1.48
2019-01-17T06:05:53.140Z,-1.56
2019-01-17T06:08:20.704Z,-1.57
2019-01-17T06:10:48.253Z,-1.56
2019-01-17T06:13:15.904Z,-1.55
2019-01-17T06:15:44.009Z,-1.48
2019-01-17T06:18:11.658Z,-1.51
2019-01-17T06:20:39.530Z,-1.56
2019-01-17T06:23:07.232Z,-1.62
2019-01-17T06:25:34.868Z,-1.49
2019-01-17T06:28:02.440Z,-1.47
2019-01-17T06:30:30.138Z,-1.37
2019-01-17T06:32:57.689Z,-1.35
2019-01-17T06:35:25.361Z,-1.40
2019-01-17T06:37:53.014Z,-1.34
2019-01-17T06:40:23.489Z,-1.37
2019-01-17T06:42:51.095Z,-1.30
2019-01-17T06:45:18.767Z,-1.25
2019-01-17T06:47:46.347Z,-1.32
2019-01-17T06:50:14.018Z,-1.29
2019-01-17T06:52:41.600Z,-1.31
2019-01-17T06:55:09.427Z,-1.30
2019-01-17T06:57:37.028Z,-1.22
2019-01-17T07:00:05.716Z,-1.24
2019-01-17T07:02:33.305Z,-1.19
2019-01-17T07:05:01.119Z,-1.15
2019-01-17T07:07:28.750Z,-1.11
2019-01-17T07:09:56.409Z,-1.10
2019-01-17T07:12:24.052Z,-1.07
2019-01-17T07:14:51.758Z,-1.15
2019-01-17T07:17:19.337Z,-1.21
2019-01-17T07:19:47.063Z,-1.19
2019-01-17T07:22:14.686Z,-1.08
2019-01-17T07:24:42.388Z,-0.97
2019-01-17T07:27:10.099Z,-0.89
2019-01-17T07:29:37.874Z,-0.89
2019-01-17T07:32:05.660Z,-0.86
2019-01-17T07:34:33.495Z,-0.73
2019-01-17T07:37:01.143Z,-0.68
2019-01-17T07:39:28.826Z,-0.63
2019-01-17T07:41:56.518Z,-0.52
2019-01-17T07:44:24.218Z,-0.48
2019-01-17T07:46:51.874Z,-0.51
2019-01-17T07:49:19.551Z,-0.41
2019-01-17T07:51:47.265Z,-0.37
2019-01-17T07:54:14.990Z,-0.25
2019-01-17T07:56:42.702Z,-0.07
2019-01-17T07:59:10.466Z,-0.02
2019-01-17T08:01:38.259Z,0.03
2019-01-17T08:04:05.914Z,-0.05
2019-01-17T08:06:33.662Z,0.14
2019-01-17T08:09:01.464Z,0.19
2019-01-17T08:11:29.189Z,0.41
2019-01-17T08:13:56.885Z,0.78
2019-01-17T08:16:24.531Z,1.10
2019-01-17T08:18:52.612Z,1.45
2019-01-17T08:21:20.224Z,1.59
2019-01-17T08:23:48.956Z,1.85
2019-01-17T08:26:16.613Z,2.06
2019-01-17T08:28:44.202Z,2.31
2019-01-17T08:31:11.881Z,2.85
2019-01-17T08:33:39.466Z,3.33
2019-01-17T08:36:07.154Z,3.85
2019-01-17T08:38:34.721Z,4.17
2019-01-17T08:41:02.392Z,4.62
2019-01-17T08:43:29.929Z,5.24
2019-01-17T08:45:57.641Z,5.63
2019-01-17T08:48:25.188Z,5.95
2019-01-17T08:50:52.801Z,6.00
2019-01-17T08:53:20.375Z,6.30
2019-01-17T08:55:48.108Z,6.43
2019-01-17T08:58:16.182Z,6.47
2019-01-17T09:00:43.851Z,6.46
2019-01-17T09:03:12.629Z,6.87
2019-01-17T09:05:40.556Z,7.51
2019-01-17T09:08:08.162Z,7.86
2019-01-17T09:10:35.973Z,7.94
2019-01-17T09:13:03.801Z,8.23
2019-01-17T09:15:33.587Z,8.32
2019-01-17T09:18:01.194Z,8.67
2019-01-17T09:20:28.926Z,8.74
2019-01-17T09:22:56.526Z,8.23
2019-01-17T09:25:24.231Z,7.71
2019-01-17T09:27:51.922Z,8.11
2019-01-17T09:30:19.650Z,8.37
2019-01-17T09:32:47.452Z,8.15
2019-01-17T09:35:15.564Z,7.94
2019-01-17T09:37:44.324Z,7.59
2019-01-17T09:40:16.882Z,7.36
2019-01-17T09:42:44.674Z,7.32
2019-01-17T09:45:12.992Z,7.68
2019-01-17T09:47:40.669Z,8.05
2019-01-17T09:50:14.951Z,8.65
2019-01-17T09:52:44.249Z,9.26
2019-01-17T09:55:15.684Z,9.62
2019-01-17T09:57:44.410Z,9.85
2019-01-17T10:00:18.112Z,10.18
2019-01-17T10:02:45.839Z,10.39
2019-01-17T10:05:13.615Z,10.47
2019-01-17T10:07:41.505Z,10.67
2019-01-17T10:10:11.960Z,10.66
2019-01-17T10:12:39.550Z,10.85
2019-01-17T10:15:11.803Z,11.48
2019-01-17T10:18:17.455Z,11.56
2019-01-17T10:21:42.088Z,11.35
2019-01-17T10:24:48.012Z,11.51
2019-01-17T10:27:45.227Z,11.97
2019-01-17T10:30:27.883Z,11.85
2019-01-17T10:33:27.161Z,12.47
2019-01-17T10:36:44.300Z,12.74
2019-01-17T10:39:55.326Z,12.77
2019-01-17T10:42:56.078Z,12.11
2019-01-17T10:45:54.158Z,12.28
2019-01-17T10:49:00.190Z,13.06
2019-01-17T10:51:41.325Z,13.05
2019-01-17T10:54:53.415Z,12.87
2019-01-17T10:57:33.049Z,13.18
2019-01-17T11:00:36.144Z,13.40
2019-01-17T11:03:25.397Z,13.98
2019-01-17T11:06:15.383Z,14.04
2019-01-17T11:09:15.120Z,14.26
2019-01-17T11:12:20.174Z,13.87
2019-01-17T11:15:26.091Z,13.66
2019-01-17T11:18:47.135Z,13.54
2019-01-17T11:21:58.128Z,14.21
2019-01-17T11:25:02.979Z,14.44
2019-01-17T11:28:11.631Z,14.74
2019-01-17T11:31:17.049Z,14.88
2019-01-17T11:34:08.776Z,14.67
2019-01-17T11:37:33.075Z,14.38
2019-01-17T11:40:19.524Z,15.13
2019-01-17T11:43:36.721Z,15.76
2019-01-17T11:46:41.639Z,15.90
2019-01-17T11:49:37.102Z,15.31
2019-01-17T11:52:55.761Z,15.38
2019-01-17T11:56:03.434Z,15.60
2019-01-17T11:59:33.974Z,15.46
2019-01-17T12:02:58.674Z,15.52
2019-01-17T12:05:26.426Z,15.41
2019-01-17T12:07:54.256Z,15.50
2019-01-17T12:10:21.924Z,15.98
2019-01-17T12:12:50.005Z,16.21
2019-01-17T12:15:17.793Z,16.29
2019-01-17T12:17:45.505Z,15.90
2019-01-17T12:20:13.269Z,15.85
2019-01-17T12:22:40.970Z,15.96
2019-01-17T12:25:08.718Z,16.38
2019-01-17T12:27:42.358Z,16.71
2019-01-17T12:30:10.143Z,16.60
2019-01-17T12:32:37.693Z,16.62
2019-01-17T12:35:06.305Z,16.84
2019-01-17T12:37:35.790Z,16.83
2019-01-17T12:40:04.480Z,16.87
2019-01-17T12:42:32.111Z,16.46
2019-01-17T12:44:59.761Z,16.73
2019-01-17T12:47:30.291Z,17.02
2019-01-17T12:49:57.924Z,16.97
2019-01-17T12:52:25.562Z,17.14
2019-01-17T12:54:53.370Z,17.06
2019-01-17T12:57:20.943Z,17.13
2019-01-17T12:59:48.643Z,16.82
2019-01-17T13:02:16.243Z,16.93
2019-01-17T13:04:43.958Z,17.08
2019-01-17T13:07:11.587Z,17.06
2019-01-17T13:09:39.243Z,16.69
2019-01-17T13:12:06.823Z,16.80
2019-01-17T13:14:36.355Z,16.76
2019-01-17T13:17:04.040Z,16.15
2019-01-17T13:19:31.705Z,16.27
2019-01-17T13:21:59.515Z,16.12
2019-01-17T13:24:27.188Z,16.08
2019-01-17T13:27:00.578Z,16.37
2019-01-17T13:29:24.296Z,15.91
2019-01-17T13:31:52.033Z,16.55
2019-01-17T13:34:19.849Z,16.82
2019-01-17T13:36:47.517Z,16.79
2019-01-17T13:39:15.089Z,16.83
2019-01-17T13:41:42.774Z,16.72
2019-01-17T13:44:10.407Z,16.63
2019-01-17T13:46:38.106Z,16.80
2019-01-17T13:49:05.738Z,16.46
2019-01-17T13:51:33.407Z,15.99
2019-01-17T13:54:00.986Z,16.21
2019-01-17T13:56:28.627Z,16.14
2019-01-17T13:58:56.245Z,16.22
2019-01-17T14:01:23.913Z,16.50
2019-01-17T14:03:51.472Z,16.52
2019-01-17T14:06:19.175Z,16.33
2019-01-17T14:08:46.733Z,15.98
2019-01-17T14:11:14.382Z,15.98
2019-01-17T14:13:41.939Z,16.14
2019-01-17T14:16:09.669Z,15.58
2019-01-17T14:18:37.264Z,14.91
2019-01-17T14:21:04.902Z,14.73
2019-01-17T14:23:32.518Z,15.17
2019-01-17T14:26:00.239Z,14.98
2019-01-17T14:28:27.956Z,14.46
2019-01-17T14:30:55.800Z,14.16
2019-01-17T14:33:23.546Z,14.37
2019-01-17T14:35:51.178Z,14.60
2019-01-17T14:38:18.862Z,14.16
2019-01-17T14:40:46.495Z,13.92
2019-01-17T14:43:14.111Z,13.56
2019-01-17T14:45:41.655Z,13.47
2019-01-17T14:48:09.379Z,13.78
2019-01-17T14:50:40.008Z,12.91
2019-01-17T14:53:07.848Z,13.00
2019-01-17T14:55:35.753Z,12.62
2019-01-17T14:58:03.624Z,11.92
2019-01-17T15:00:32.522Z,11.91
2019-01-17T15:03:00.204Z,11.87
2019-01-17T15:05:27.887Z,11.72
2019-01-17T15:07:55.501Z,11.34
2019-01-17T15:10:34.929Z,11.09
2019-01-17T15:13:02.586Z,10.97
2019-01-17T15:15:30.234Z,11.03
2019-01-17T15:17:57.906Z,10.85
2019-01-17T15:20:25.667Z,10.59
2019-01-17T15:22:53.374Z,10.38
2019-01-17T15:25:21.195Z,10.20
2019-01-17T15:27:51.948Z,10.03
2019-01-17T15:30:21.778Z,9.86
2019-01-17T15:32:49.912Z,9.68
2019-01-17T15:35:17.633Z,9.30
2019-01-17T15:37:45.349Z,9.34
2019-01-17T15:40:16.009Z,9.25
2019-01-17T15:42:45.440Z,9.00
2019-01-17T15:45:13.264Z,8.73
2019-01-17T15:47:40.929Z,8.50
2019-01-17T15:50:11.850Z,8.28
2019-01-17T15:52:39.535Z,8.18
2019-01-17T15:55:11.719Z,8.19
2019-01-17T15:57:42.706Z,8.21
2019-01-17T16:00:19.884Z,8.28
2019-01-17T16:02:48.448Z,8.29
2019-01-17T16:05:16.550Z,8.34
2019-01-17T16:07:44.405Z,8.35
2019-01-17T16:10:13.678Z,8.36
2019-01-17T16:12:41.750Z,8.24
2019-01-17T16:15:15.150Z,8.26
2019-01-17T16:17:43.691Z,8.19
2019-01-17T16:20:12.577Z,8.14
2019-01-17T16:22:40.615Z,7.99
2019-01-17T16:25:11.451Z,7.94
2019-01-17T16:27:41.767Z,7.94
2019-01-17T16:30:15.795Z,7.97
2019-01-17T16:32:43.924Z,7.93
2019-01-17T16:35:17.943Z,7.96
2019-01-17T16:37:45.917Z,7.92
2019-01-17T16:40:17.057Z,7.84
2019-01-17T16:42:44.930Z,7.79
2019-01-17T16:45:14.385Z,7.79
2019-01-17T16:47:42.623Z,7.70
2019-01-17T16:50:13.618Z,7.57
2019-01-17T16:52:41.801Z,7.44
2019-01-17T16:55:10.263Z,7.40
2019-01-17T16:57:38.096Z,7.37
2019-01-17T17:00:14.402Z,7.21
2019-01-17T17:02:42.914Z,6.91
2019-01-17T17:05:10.989Z,6.87
2019-01-17T17:07:39.392Z,6.79
2019-01-17T17:10:08.423Z,6.80
2019-01-17T17:12:36.120Z,6.74
2019-01-17T17:15:05.177Z,6.73
2019-01-17T17:17:33.337Z,6.69
2019-01-17T17:20:01.315Z,6.59
2019-01-17T17:22:29.568Z,6.59
2019-01-17T17:24:57.486Z,6.53
2019-01-17T17:27:25.845Z,6.49
2019-01-17T17:29:57.052Z,6.47
2019-01-17T17:32:25.063Z,6.44
2019-01-17T17:34:53.721Z,6.30
2019-01-17T17:37:21.886Z,6.27
2019-01-17T17:39:49.956Z,6.23
2019-01-17T17:42:17.760Z,6.30
2019-01-17T17:44:45.806Z,6.34
2019-01-17T17:47:13.750Z,6.45
2019-01-17T17:49:41.729Z,6.52
2019-01-17T17:52:09.546Z,6.54
2019-01-17T17:54:40.059Z,6.61
2019-01-17T17:57:08.099Z,6.68
2019-01-17T17:59:36.136Z,6.72
2019-01-17T18:02:20.800Z,6.77
2019-01-17T18:05:00.448Z,6.81
2019-01-17T18:07:36.806Z,6.82
2019-01-17T18:10:12.060Z,6.84
2019-01-17T18:12:43.081Z,6.85
2019-01-17T18:15:15.120Z,6.79
2019-01-17T18:18:16.324Z,6.84
2019-01-17T18:20:48.276Z,6.84
2019-01-17T18:23:21.475Z,6.88
2019-01-17T18:26:48.692Z,6.84
2019-01-17T18:29:22.861Z,6.82
2019-01-17T18:32:01.327Z,6.68
2019-01-17T18:34:31.294Z,6.25
2019-01-17T18:37:19.659Z,6.29
2019-01-17T18:39:47.499Z,6.40
2019-01-17T18:42:15.667Z,6.26
2019-01-17T18:44:54.702Z,6.34
2019-01-17T18:47:26.665Z,6.04
2019-01-17T18:49:54.662Z,6.07
2019-01-17T18:52:22.859Z,6.04
2019-01-17T18:54:50.744Z,6.00
2019-01-17T18:57:19.231Z,6.05
2019-01-17T18:59:47.127Z,5.99
2019-01-17T19:02:15.106Z,6.08
2019-01-17T19:04:43.995Z,6.08
2019-01-17T19:07:11.955Z,6.06
2019-01-17T19:09:39.949Z,6.10
2019-01-17T19:12:08.075Z,6.18
2019-01-17T19:14:35.923Z,6.00
2019-01-17T19:17:04.600Z,6.05
2019-01-17T19:19:32.840Z,5.86
2019-01-17T19:22:00.781Z,5.94
2019-01-17T19:24:28.490Z,5.99
2019-01-17T19:26:56.279Z,6.03
2019-01-17T19:29:25.769Z,5.91
2019-01-17T19:31:53.677Z,5.88
2019-01-17T19:34:21.585Z,5.96
2019-01-17T19:36:49.607Z,5.89
2019-01-17T19:39:17.336Z,5.84
2019-01-17T19:41:45.277Z,5.86
2019-01-17T19:44:13.090Z,5.86
2019-01-17T19:46:41.628Z,5.85
2019-01-17T19:49:09.456Z,5.88
2019-01-17T19:51:37.583Z,5.84
2019-01-17T19:54:05.606Z,5.66
2019-01-17T19:56:35.199Z,5.65
2019-01-17T19:59:03.355Z,5.64
2019-01-17T20:01:31.096Z,5.63
2019-01-17T20:03:59.092Z,5.62
2019-01-17T20:06:27.137Z,5.58
2019-01-17T20:08:57.436Z,5.58
2019-01-17T20:11:26.598Z,5.54
2019-01-17T20:13:55.079Z,5.48
2019-01-17T20:16:23.238Z,5.44
2019-01-17T20:18:51.779Z,5.45
2019-01-17T20:21:19.644Z,5.48
2019-01-17T20:23:47.695Z,5.32
2019-01-17T20:26:15.767Z,5.35
2019-01-17T20:28:43.643Z,5.21
2019-01-17T20:31:14.521Z,5.14
2019-01-17T20:33:42.817Z,5.09
2019-01-17T20:36:10.778Z,5.10
2019-01-17T20:38:38.855Z,5.03
2019-01-17T20:41:06.971Z,5.13
2019-01-17T20:43:34.831Z,5.02
2019-01-17T20:46:02.672Z,5.04
2019-01-17T20:48:36.450Z,5.12
2019-01-17T20:51:04.167Z,5.14
2019-01-17T20:53:31.950Z,5.15
2019-01-17T20:56:01.604Z,5.13
2019-01-17T20:58:29.500Z,4.97
2019-01-17T21:01:21.687Z,4.93
2019-01-17T21:03:49.434Z,4.96
2019-01-17T21:06:17.245Z,4.97
2019-01-17T21:08:48.909Z,4.87
2019-01-17T21:11:22.794Z,4.90
2019-01-17T21:13:51.113Z,4.90
2019-01-17T21:16:19.416Z,4.91
2019-01-17T21:18:49.338Z,4.89
2019-01-17T21:21:23.577Z,4.92
2019-01-17T21:23:52.870Z,4.90
2019-01-17T21:26:28.540Z,4.91
2019-01-17T21:28:56.228Z,4.89
2019-01-17T21:31:24.164Z,4.88
2019-01-17T21:33:51.872Z,4.79
2019-01-17T21:36:25.630Z,4.70
2019-01-17T21:38:53.397Z,4.53
2019-01-17T21:41:21.662Z,4.59
2019-01-17T21:43:50.021Z,4.69
2019-01-17T21:46:18.861Z,4.71
2019-01-17T21:48:46.571Z,4.73
2019-01-17T21:51:17.533Z,4.66
2019-01-17T21:53:46.514Z,4.54
2019-01-17T21:56:14.177Z,4.55
2019-01-17T21:58:42.061Z,4.56
2019-01-17T22:01:09.833Z,4.57
2019-01-17T22:03:37.507Z,4.61
2019-01-17T22:06:07.872Z,4.51
2019-01-17T22:08:35.860Z,4.47
2019-01-17T22:11:03.595Z,4.56
2019-01-17T22:13:31.249Z,4.59
2019-01-17T22:15:58.996Z,4.64
2019-01-17T22:18:26.594Z,4.52
2019-01-17T22:20:54.347Z,4.49
2019-01-17T22:23:21.924Z,4.53
2019-01-17T22:25:49.599Z,4.51
2019-01-17T22:28:17.150Z,4.56
2019-01-17T22:30:44.848Z,4.47
2019-01-17T22:33:12.422Z,4.48
2019-01-17T22:35:40.212Z,4.43
2019-01-17T22:38:07.959Z,4.50
2019-01-17T22:40:35.642Z,4.47
2019-01-17T22:43:03.973Z,4.48
2019-01-17T22:45:31.756Z,4.52
2019-01-17T22:47:59.474Z,4.45
2019-01-17T22:50:27.274Z,4.46
2019-01-17T22:52:55.076Z,4.50
2019-01-17T22:55:22.804Z,4.64
2019-01-17T22:57:50.583Z,4.85
2019-01-17T23:01:12.136Z,4.86
2019-01-17T23:03:42.185Z,4.92
2019-01-17T23:06:09.833Z,4.91
2019-01-17T23:08:37.546Z,4.86
2019-01-17T23:11:05.292Z,4.86
2019-01-17T23:13:33.136Z,4.88
2019-01-17T23:16:00.857Z,4.89
2019-01-17T23:18:28.480Z,4.86
2019-01-17T23:20:56.151Z,4.95
2019-01-17T23:23:23.726Z,4.93
2019-01-17T23:25:51.378Z,4.90
2019-01-17T23:28:18.952Z,4.89
2019-01-17T23:30:46.622Z,4.90
2019-01-17T23:33:14.183Z,4.88
2019-01-17T23:35:41.867Z,4.90
2019-01-17T23:38:09.440Z,4.86
2019-01-17T23:40:37.070Z,4.85
2019-01-17T23:43:04.716Z,4.86
2019-01-17T23:45:32.471Z,4.76
2019-01-17T23:48:00.130Z,4.79
2019-01-17T23:50:27.756Z,4.78
2019-01-17T23:52:55.376Z,4.74
2019-01-17T23:55:23.062Z,4.69
2019-01-17T23:57:50.958Z,4.72
